sensor_id;sensor_type;location;lat;lon;timestamp;pressure;altitude;pressure_sealevel;temperature;humidity
48216;BME280;34005;48.844;10.098;2023-04-22T00:00:27;96107.66;;;11.63;67.63
48216;BME280;34005;48.844;10.098;2023-04-22T00:02:58;96118.50;;;11.60;67.16
48216;BME280;34005;48.844;10.098;2023-04-22T00:05:27;96103.22;;;11.57;67.41
48216;BME280;34005;48.844;10.098;2023-04-22T00:07:55;96107.63;;;11.56;67.32
48216;BME280;34005;48.844;10.098;2023-04-22T00:10:22;96114.06;;;11.53;67.27
48216;BME280;34005;48.844;10.098;2023-04-22T00:12:50;96112.66;;;11.51;67.29
48216;BME280;34005;48.844;10.098;2023-04-22T00:15:18;96114.88;;;11.47;67.23
48216;BME280;34005;48.844;10.098;2023-04-22T00:17:47;96115.28;;;11.44;67.06
48216;BME280;34005;48.844;10.098;2023-04-22T00:20:16;96119.47;;;11.39;67.23
48216;BME280;34005;48.844;10.098;2023-04-22T00:22:43;96118.06;;;11.36;67.39
48216;BME280;34005;48.844;10.098;2023-04-22T00:25:11;96118.06;;;11.36;68.26
48216;BME280;34005;48.844;10.098;2023-04-22T00:27:39;96122.69;;;11.41;70.35
48216;BME280;34005;48.844;10.098;2023-04-22T00:30:07;96116.25;;;11.43;68.87
48216;BME280;34005;48.844;10.098;2023-04-22T00:32:36;96111.03;;;11.43;67.72
48216;BME280;34005;48.844;10.098;2023-04-22T00:35:05;96119.28;;;11.40;67.60
48216;BME280;34005;48.844;10.098;2023-04-22T00:37:34;96118.06;;;11.36;67.61
48216;BME280;34005;48.844;10.098;2023-04-22T00:40:01;96122.69;;;11.34;67.68
48216;BME280;34005;48.844;10.098;2023-04-22T00:42:29;96120.47;;;11.31;67.74
48216;BME280;34005;48.844;10.098;2023-04-22T00:44:57;96119.06;;;11.28;67.69
48216;BME280;34005;48.844;10.098;2023-04-22T00:47:26;96124.47;;;11.27;67.80
48216;BME280;34005;48.844;10.098;2023-04-22T00:49:54;96118.84;;;11.23;67.77
48216;BME280;34005;48.844;10.098;2023-04-22T00:52:21;96117.44;;;11.21;67.84
48216;BME280;34005;48.844;10.098;2023-04-22T00:54:50;96119.63;;;11.17;68.01
48216;BME280;34005;48.844;10.098;2023-04-22T00:57:18;96120.81;;;11.14;68.05
48216;BME280;34005;48.844;10.098;2023-04-22T00:59:46;96124.44;;;11.13;67.93
48216;BME280;34005;48.844;10.098;2023-04-22T01:02:14;96131.66;;;11.11;68.11
48216;BME280;34005;48.844;10.098;2023-04-22T01:04:42;96131.25;;;11.14;70.80
48216;BME280;34005;48.844;10.098;2023-04-22T01:07:09;96128.88;;;11.20;71.95
48216;BME280;34005;48.844;10.098;2023-04-22T01:09:37;96134.72;;;11.22;71.07
48216;BME280;34005;48.844;10.098;2023-04-22T01:12:06;96127.69;;;11.22;70.96
48216;BME280;34005;48.844;10.098;2023-04-22T01:14:34;96131.28;;;11.21;70.74
48216;BME280;34005;48.844;10.098;2023-04-22T01:17:02;96126.28;;;11.20;69.40
48216;BME280;34005;48.844;10.098;2023-04-22T01:19:30;96123.84;;;11.18;68.56
48216;BME280;34005;48.844;10.098;2023-04-22T01:21:59;96119.84;;;11.16;68.22
48216;BME280;34005;48.844;10.098;2023-04-22T01:24:29;96126.88;;;11.15;68.01
48216;BME280;34005;48.844;10.098;2023-04-22T01:26:56;96130.88;;;11.18;67.96
48216;BME280;34005;48.844;10.098;2023-04-22T01:29:24;96132.47;;;11.19;67.79
48216;BME280;34005;48.844;10.098;2023-04-22T01:31:52;96131.28;;;11.21;67.43
48216;BME280;34005;48.844;10.098;2023-04-22T01:34:20;96121.25;;;11.25;67.30
48216;BME280;34005;48.844;10.098;2023-04-22T01:36:48;96130.31;;;11.29;66.85
48216;BME280;34005;48.844;10.098;2023-04-22T01:39:16;96127.28;;;11.32;66.76
48216;BME280;34005;48.844;10.098;2023-04-22T01:41:45;96126.09;;;11.34;68.18
48216;BME280;34005;48.844;10.098;2023-04-22T01:44:13;96130.13;;;11.37;66.90
48216;BME280;34005;48.844;10.098;2023-04-22T01:46:41;96125.53;;;11.39;67.27
48216;BME280;34005;48.844;10.098;2023-04-22T01:49:09;96117.69;;;11.39;66.47
48216;BME280;34005;48.844;10.098;2023-04-22T01:51:36;96122.91;;;11.39;66.23
48216;BME280;34005;48.844;10.098;2023-04-22T01:54:04;96130.34;;;11.42;68.10
48216;BME280;34005;48.844;10.098;2023-04-22T01:56:32;96123.72;;;11.46;67.94
48216;BME280;34005;48.844;10.098;2023-04-22T01:59:00;96126.94;;;11.48;69.27
48216;BME280;34005;48.844;10.098;2023-04-22T02:01:28;96127.53;;;11.50;68.01
48216;BME280;34005;48.844;10.098;2023-04-22T02:03:56;96131.56;;;11.53;69.24
48216;BME280;34005;48.844;10.098;2023-04-22T02:06:23;96127.13;;;11.53;68.91
48216;BME280;34005;48.844;10.098;2023-04-22T02:08:51;96129.56;;;11.55;67.96
48216;BME280;34005;48.844;10.098;2023-04-22T02:11:18;96133.38;;;11.59;69.94
48216;BME280;34005;48.844;10.098;2023-04-22T02:13:46;96136.97;;;11.58;67.36
48216;BME280;34005;48.844;10.098;2023-04-22T02:16:15;96138.78;;;11.58;66.58
48216;BME280;34005;48.844;10.098;2023-04-22T02:18:42;96136.19;;;11.58;66.54
48216;BME280;34005;48.844;10.098;2023-04-22T02:21:10;96141.81;;;11.61;68.73
48216;BME280;34005;48.844;10.098;2023-04-22T02:23:38;96135.41;;;11.64;67.32
48216;BME280;34005;48.844;10.098;2023-04-22T02:26:07;96134.19;;;11.66;69.89
48216;BME280;34005;48.844;10.098;2023-04-22T02:28:34;96141.84;;;11.68;67.07
48216;BME280;34005;48.844;10.098;2023-04-22T02:31:02;96139.41;;;11.66;68.00
48216;BME280;34005;48.844;10.098;2023-04-22T02:33:31;96137.78;;;11.65;66.39
48216;BME280;34005;48.844;10.098;2023-04-22T02:35:58;96128.53;;;11.63;65.56
48216;BME280;34005;48.844;10.098;2023-04-22T02:38:26;96131.75;;;11.58;65.77
48216;BME280;34005;48.844;10.098;2023-04-22T02:40:53;96129.34;;;11.57;67.52
48216;BME280;34005;48.844;10.098;2023-04-22T02:43:21;96126.16;;;11.54;65.94
48216;BME280;34005;48.844;10.098;2023-04-22T02:45:48;96115.09;;;11.52;65.51
48216;BME280;34005;48.844;10.098;2023-04-22T02:48:16;96120.31;;;11.52;67.46
48216;BME280;34005;48.844;10.098;2023-04-22T02:50:45;96122.50;;;11.55;69.83
48216;BME280;34005;48.844;10.098;2023-04-22T02:53:12;96119.91;;;11.55;66.79
48216;BME280;34005;48.844;10.098;2023-04-22T02:55:40;96123.31;;;11.56;68.75
48216;BME280;34005;48.844;10.098;2023-04-22T02:58:08;96118.50;;;11.60;69.72
48216;BME280;34005;48.844;10.098;2023-04-22T03:00:35;96121.72;;;11.62;70.90
48216;BME280;34005;48.844;10.098;2023-04-22T03:03:03;96114.88;;;11.61;67.95
48216;BME280;34005;48.844;10.098;2023-04-22T03:05:31;96116.69;;;11.60;66.93
48216;BME280;34005;48.844;10.098;2023-04-22T03:08:00;96118.50;;;11.60;65.34
48216;BME280;34005;48.844;10.098;2023-04-22T03:10:27;96111.28;;;11.55;64.91
48216;BME280;34005;48.844;10.098;2023-04-22T03:12:55;96108.44;;;11.50;64.57
48216;BME280;34005;48.844;10.098;2023-04-22T03:15:22;96114.88;;;11.47;64.41
48216;BME280;34005;48.844;10.098;2023-04-22T03:17:50;96114.25;;;11.45;64.47
48216;BME280;34005;48.844;10.098;2023-04-22T03:20:18;96110.06;;;11.44;64.36
48216;BME280;34005;48.844;10.098;2023-04-22T03:22:46;96110.06;;;11.44;64.19
48216;BME280;34005;48.844;10.098;2023-04-22T03:25:15;96110.44;;;11.41;63.98
48216;BME280;34005;48.844;10.098;2023-04-22T03:27:42;96111.44;;;11.40;63.98
48216;BME280;34005;48.844;10.098;2023-04-22T03:30:10;96118.66;;;11.38;64.01
48216;BME280;34005;48.844;10.098;2023-04-22T03:32:38;96114.47;;;11.37;64.99
48216;BME280;34005;48.844;10.098;2023-04-22T03:35:06;96113.44;;;11.38;65.50
48216;BME280;34005;48.844;10.098;2023-04-22T03:37:33;96116.66;;;11.40;66.13
48216;BME280;34005;48.844;10.098;2023-04-22T03:40:01;96117.88;;;11.44;66.97
48216;BME280;34005;48.844;10.098;2023-04-22T03:42:32;96117.88;;;11.44;65.48
48216;BME280;34005;48.844;10.098;2023-04-22T03:44:59;96116.25;;;11.43;67.25
48216;BME280;34005;48.844;10.098;2023-04-22T03:47:27;96114.25;;;11.45;67.93
48216;BME280;34005;48.844;10.098;2023-04-22T03:49:55;96119.28;;;11.47;67.59
48216;BME280;34005;48.844;10.098;2023-04-22T03:52:22;96117.47;;;11.47;68.56
48216;BME280;34005;48.844;10.098;2023-04-22T03:54:50;96114.88;;;11.47;67.83
48216;BME280;34005;48.844;10.098;2023-04-22T03:57:17;96120.31;;;11.46;68.19
48216;BME280;34005;48.844;10.098;2023-04-22T03:59:46;96118.69;;;11.45;67.32
48216;BME280;34005;48.844;10.098;2023-04-22T04:02:14;96116.88;;;11.45;67.98
48216;BME280;34005;48.844;10.098;2023-04-22T04:04:42;96116.25;;;11.43;66.73
48216;BME280;34005;48.844;10.098;2023-04-22T04:07:10;96118.06;;;11.43;66.67
48216;BME280;34005;48.844;10.098;2023-04-22T04:09:38;96118.47;;;11.40;65.74
48216;BME280;34005;48.844;10.098;2023-04-22T04:12:06;96115.25;;;11.38;65.26
48216;BME280;34005;48.844;10.098;2023-04-22T04:14:34;96122.50;;;11.36;65.24
48216;BME280;34005;48.844;10.098;2023-04-22T04:17:03;96124.91;;;11.37;65.94
48216;BME280;34005;48.844;10.098;2023-04-22T04:19:30;96117.47;;;11.34;64.82
48216;BME280;34005;48.844;10.098;2023-04-22T04:21:58;96118.84;;;11.30;64.88
48216;BME280;34005;48.844;10.098;2023-04-22T04:24:27;96118.25;;;11.28;64.91
48216;BME280;34005;48.844;10.098;2023-04-22T04:26:55;96117.63;;;11.26;65.55
48216;BME280;34005;48.844;10.098;2023-04-22T04:29:23;96128.91;;;11.33;68.95
48216;BME280;34005;48.844;10.098;2023-04-22T04:31:51;96127.28;;;11.32;67.08
48216;BME280;34005;48.844;10.098;2023-04-22T04:34:20;96124.84;;;11.24;66.42
48216;BME280;34005;48.844;10.098;2023-04-22T04:36:48;96122.03;;;11.19;66.26
48216;BME280;34005;48.844;10.098;2023-04-22T04:39:16;96111.22;;;11.15;66.13
48216;BME280;34005;48.844;10.098;2023-04-22T04:41:44;96118.03;;;11.16;65.97
48216;BME280;34005;48.844;10.098;2023-04-22T04:44:14;96113.81;;;11.15;65.78
48216;BME280;34005;48.844;10.098;2023-04-22T04:46:42;96114.00;;;11.13;65.70
48216;BME280;34005;48.844;10.098;2023-04-22T04:49:11;96119.22;;;11.13;65.80
48216;BME280;34005;48.844;10.098;2023-04-22T04:51:40;96125.44;;;11.12;65.87
48216;BME280;34005;48.844;10.098;2023-04-22T04:54:08;96126.03;;;11.14;65.87
48216;BME280;34005;48.844;10.098;2023-04-22T04:56:36;96128.66;;;11.14;65.73
48216;BME280;34005;48.844;10.098;2023-04-22T04:59:03;96134.88;;;11.13;66.04
48216;BME280;34005;48.844;10.098;2023-04-22T05:01:31;96128.03;;;11.12;66.04
48216;BME280;34005;48.844;10.098;2023-04-22T05:03:58;96126.63;;;11.10;66.09
48216;BME280;34005;48.844;10.098;2023-04-22T05:06:27;96133.06;;;11.07;66.13
48216;BME280;34005;48.844;10.098;2023-04-22T05:08:55;96125.41;;;11.06;66.29
48216;BME280;34005;48.844;10.098;2023-04-22T05:11:23;96128.84;;;11.06;66.29
48216;BME280;34005;48.844;10.098;2023-04-22T05:13:51;96128.84;;;11.06;66.21
48216;BME280;34005;48.844;10.098;2023-04-22T05:16:18;96130.63;;;11.06;66.24
48216;BME280;34005;48.844;10.098;2023-04-22T05:18:46;96125.22;;;11.07;66.32
48216;BME280;34005;48.844;10.098;2023-04-22T05:21:14;96133.66;;;11.09;66.17
48216;BME280;34005;48.844;10.098;2023-04-22T05:23:42;96131.25;;;11.14;67.75
48216;BME280;34005;48.844;10.098;2023-04-22T05:26:11;96126.06;;;11.21;67.46
48216;BME280;34005;48.844;10.098;2023-04-22T05:28:39;96132.50;;;11.25;66.56
48216;BME280;34005;48.844;10.098;2023-04-22T05:31:06;96129.28;;;11.23;66.19
48216;BME280;34005;48.844;10.098;2023-04-22T05:33:34;96131.28;;;11.21;66.32
48216;BME280;34005;48.844;10.098;2023-04-22T05:36:02;96126.06;;;11.21;66.23
48216;BME280;34005;48.844;10.098;2023-04-22T05:38:29;96130.06;;;11.24;65.79
48216;BME280;34005;48.844;10.098;2023-04-22T05:41:44;96129.69;;;11.27;65.58
48216;BME280;34005;48.844;10.098;2023-04-22T05:44:18;96137.94;;;11.30;65.72
48216;BME280;34005;48.844;10.098;2023-04-22T05:46:48;96135.34;;;11.37;65.70
48216;BME280;34005;48.844;10.098;2023-04-22T05:49:23;96136.97;;;11.45;66.04
48216;BME280;34005;48.844;10.098;2023-04-22T05:51:52;96145.81;;;11.50;65.72
48216;BME280;34005;48.844;10.098;2023-04-22T05:54:21;96140.59;;;11.50;65.60
48216;BME280;34005;48.844;10.098;2023-04-22T05:56:54;96136.97;;;11.51;65.06
48216;BME280;34005;48.844;10.098;2023-04-22T05:59:22;96144.19;;;11.49;65.13
48216;BME280;34005;48.844;10.098;2023-04-22T06:01:49;96142.59;;;11.48;65.09
48216;BME280;34005;48.844;10.098;2023-04-22T06:04:17;96144.63;;;11.53;66.42
48216;BME280;34005;48.844;10.098;2023-04-22T06:06:45;96141.41;;;11.58;65.04
48216;BME280;34005;48.844;10.098;2023-04-22T06:09:13;96144.22;;;11.63;64.60
48216;BME280;34005;48.844;10.098;2023-04-22T06:11:41;96141.84;;;11.68;64.44
48216;BME280;34005;48.844;10.098;2023-04-22T06:14:10;96143.03;;;11.72;64.25
48216;BME280;34005;48.844;10.098;2023-04-22T06:16:38;96135.00;;;11.80;66.45
48216;BME280;34005;48.844;10.098;2023-04-22T06:19:06;96135.81;;;11.87;64.66
48216;BME280;34005;48.844;10.098;2023-04-22T06:21:34;96132.41;;;11.93;63.96
48216;BME280;34005;48.844;10.098;2023-04-22T06:24:04;96136.03;;;11.99;63.93
48216;BME280;34005;48.844;10.098;2023-04-22T06:26:31;96137.03;;;12.05;64.03
48216;BME280;34005;48.844;10.098;2023-04-22T06:28:59;96132.63;;;12.12;63.37
48216;BME280;34005;48.844;10.098;2023-04-22T06:31:29;96140.25;;;12.20;65.48
48216;BME280;34005;48.844;10.098;2023-04-22T06:33:57;96138.44;;;12.27;64.33
48216;BME280;34005;48.844;10.098;2023-04-22T06:36:25;96138.59;;;12.32;63.03
48216;BME280;34005;48.844;10.098;2023-04-22T06:38:55;96148.25;;;12.39;65.33
48216;BME280;34005;48.844;10.098;2023-04-22T06:41:23;96147.44;;;12.45;65.66
48216;BME280;34005;48.844;10.098;2023-04-22T06:43:51;96153.47;;;12.52;63.83
48216;BME280;34005;48.844;10.098;2023-04-22T06:46:18;96150.03;;;12.58;64.22
48216;BME280;34005;48.844;10.098;2023-04-22T06:48:47;96154.84;;;12.61;64.44
48216;BME280;34005;48.844;10.098;2023-04-22T06:51:15;96148.19;;;12.65;64.95
48216;BME280;34005;48.844;10.098;2023-04-22T06:53:42;96146.19;;;12.67;65.64
48216;BME280;34005;48.844;10.098;2023-04-22T06:56:10;96145.78;;;12.70;64.91
48216;BME280;34005;48.844;10.098;2023-04-22T06:58:38;96145.75;;;12.77;65.01
48216;BME280;34005;48.844;10.098;2023-04-22T07:01:06;96143.31;;;12.82;63.27
48216;BME280;34005;48.844;10.098;2023-04-22T07:03:33;96144.88;;;12.90;62.68
48216;BME280;34005;48.844;10.098;2023-04-22T07:14:08;96152.97;;;13.33;63.22
48216;BME280;34005;48.844;10.098;2023-04-22T07:16:36;96149.34;;;13.41;62.56
48216;BME280;34005;48.844;10.098;2023-04-22T07:19:04;96142.22;;;13.48;61.97
48216;BME280;34005;48.844;10.098;2023-04-22T07:21:32;96148.22;;;13.55;61.65
48216;BME280;34005;48.844;10.098;2023-04-22T07:23:59;96150.19;;;13.67;63.06
48216;BME280;34005;48.844;10.098;2023-04-22T07:26:27;96156.78;;;13.76;63.28
48216;BME280;34005;48.844;10.098;2023-04-22T07:28:57;96159.88;;;13.91;62.30
48216;BME280;34005;48.844;10.098;2023-04-22T07:31:26;96155.13;;;14.07;62.04
48216;BME280;34005;48.844;10.098;2023-04-22T07:33:53;96157.44;;;14.21;61.68
48216;BME280;34005;48.844;10.098;2023-04-22T07:36:21;96149.44;;;14.35;61.43
48216;BME280;34005;48.844;10.098;2023-04-22T07:38:49;96142.69;;;14.46;61.13
48216;BME280;34005;48.844;10.098;2023-04-22T07:41:16;96147.22;;;14.57;61.58
48216;BME280;34005;48.844;10.098;2023-04-22T07:43:44;96155.75;;;14.71;60.81
48216;BME280;34005;48.844;10.098;2023-04-22T07:46:11;96145.09;;;14.84;59.65
48216;BME280;34005;48.844;10.098;2023-04-22T07:48:40;96155.13;;;14.94;58.34
48216;BME280;34005;48.844;10.098;2023-04-22T07:51:08;96153.00;;;15.02;57.53
48216;BME280;34005;48.844;10.098;2023-04-22T07:53:35;96154.06;;;15.13;59.05
48216;BME280;34005;48.844;10.098;2023-04-22T07:56:03;96156.16;;;15.23;58.01
48216;BME280;34005;48.844;10.098;2023-04-22T07:58:31;96144.56;;;15.31;58.15
48216;BME280;34005;48.844;10.098;2023-04-22T08:00:58;96151.91;;;15.40;57.51
48216;BME280;34005;48.844;10.098;2023-04-22T08:03:26;96158.00;;;15.53;58.46
48216;BME280;34005;48.844;10.098;2023-04-22T08:05:56;96148.09;;;15.66;56.62
48216;BME280;34005;48.844;10.098;2023-04-22T08:08:24;96153.19;;;15.80;56.67
48216;BME280;34005;48.844;10.098;2023-04-22T08:10:51;96153.13;;;15.98;56.57
48216;BME280;34005;48.844;10.098;2023-04-22T08:13:19;96155.06;;;16.15;56.08
48216;BME280;34005;48.844;10.098;2023-04-22T08:15:47;96144.69;;;16.32;54.58
48216;BME280;34005;48.844;10.098;2023-04-22T08:18:14;96140.19;;;16.44;53.56
48216;BME280;34005;48.844;10.098;2023-04-22T08:20:42;96141.34;;;16.60;52.92
48216;BME280;34005;48.844;10.098;2023-04-22T08:23:11;96131.13;;;16.75;52.30
48216;BME280;34005;48.844;10.098;2023-04-22T08:25:39;96135.81;;;16.97;51.18
48216;BME280;34005;48.844;10.098;2023-04-22T08:28:06;96124.38;;;17.20;50.57
48216;BME280;34005;48.844;10.098;2023-04-22T08:30:34;96127.78;;;17.49;53.62
48216;BME280;34005;48.844;10.098;2023-04-22T08:33:01;96128.81;;;17.77;52.67
48216;BME280;34005;48.844;10.098;2023-04-22T08:35:29;96126.28;;;17.99;48.82
48216;BME280;34005;48.844;10.098;2023-04-22T08:37:57;96121.47;;;18.12;47.22
48216;BME280;34005;48.844;10.098;2023-04-22T08:40:26;96125.63;;;18.25;46.34
48216;BME280;34005;48.844;10.098;2023-04-22T08:42:54;96118.75;;;18.41;44.82
48216;BME280;34005;48.844;10.098;2023-04-22T08:45:22;96132.72;;;18.59;44.10
48216;BME280;34005;48.844;10.098;2023-04-22T08:47:51;96135.13;;;18.82;43.31
48216;BME280;34005;48.844;10.098;2023-04-22T08:50:20;96125.13;;;19.06;43.51
48216;BME280;34005;48.844;10.098;2023-04-22T08:52:48;96124.00;;;19.24;41.97
48216;BME280;34005;48.844;10.098;2023-04-22T08:55:16;96119.97;;;19.44;41.42
48216;BME280;34005;48.844;10.098;2023-04-22T08:57:46;96123.84;;;19.63;40.51
48216;BME280;34005;48.844;10.098;2023-04-22T09:00:16;96121.16;;;19.85;39.94
48216;BME280;34005;48.844;10.098;2023-04-22T09:02:45;96127.94;;;20.03;39.12
48216;BME280;34005;48.844;10.098;2023-04-22T09:05:14;96120.91;;;20.19;39.88
48216;BME280;34005;48.844;10.098;2023-04-22T09:07:42;96128.16;;;20.34;39.39
48216;BME280;34005;48.844;10.098;2023-04-22T09:10:10;96122.09;;;20.44;38.84
48216;BME280;34005;48.844;10.098;2023-04-22T09:12:39;96121.94;;;20.55;37.79
48216;BME280;34005;48.844;10.098;2023-04-22T09:15:09;96122.53;;;20.68;36.54
48216;BME280;34005;48.844;10.098;2023-04-22T09:17:39;96120.47;;;20.80;40.10
48216;BME280;34005;48.844;10.098;2023-04-22T09:20:09;96108.38;;;20.99;38.31
48216;BME280;34005;48.844;10.098;2023-04-22T09:22:39;96113.72;;;21.15;38.87
48216;BME280;34005;48.844;10.098;2023-04-22T09:25:14;96116.38;;;21.25;36.62
48216;BME280;34005;48.844;10.098;2023-04-22T09:27:42;96109.25;;;21.36;36.83
48216;BME280;34005;48.844;10.098;2023-04-22T09:30:11;96109.06;;;21.48;36.11
48216;BME280;34005;48.844;10.098;2023-04-22T09:32:40;96114.09;;;21.54;37.50
48216;BME280;34005;48.844;10.098;2023-04-22T09:35:08;96113.84;;;21.61;38.34
48216;BME280;34005;48.844;10.098;2023-04-22T09:37:35;96119.16;;;21.56;39.30
48216;BME280;34005;48.844;10.098;2023-04-22T09:40:14;96111.38;;;21.39;36.74
48216;BME280;34005;48.844;10.098;2023-04-22T09:42:47;96114.00;;;21.24;37.09
48216;BME280;34005;48.844;10.098;2023-04-22T09:45:25;96106.81;;;21.09;34.76
48216;BME280;34005;48.844;10.098;2023-04-22T09:47:54;96118.19;;;20.99;36.08
48216;BME280;34005;48.844;10.098;2023-04-22T09:50:24;96114.16;;;20.91;39.37
48216;BME280;34005;48.844;10.098;2023-04-22T09:52:54;96118.63;;;20.86;36.24
48216;BME280;34005;48.844;10.098;2023-04-22T09:55:23;96115.19;;;20.80;36.14
48216;BME280;34005;48.844;10.098;2023-04-22T09:57:52;96112.50;;;20.75;37.10
48216;BME280;34005;48.844;10.098;2023-04-22T10:00:22;96118.31;;;20.72;37.43
48216;BME280;34005;48.844;10.098;2023-04-22T10:02:52;96114.34;;;20.69;39.39
48216;BME280;34005;48.844;10.098;2023-04-22T10:05:19;96108.75;;;20.66;36.86
48216;BME280;34005;48.844;10.098;2023-04-22T10:07:47;96110.91;;;20.69;35.86
48216;BME280;34005;48.844;10.098;2023-04-22T10:10:14;96107.72;;;20.72;35.53
48216;BME280;34005;48.844;10.098;2023-04-22T10:12:42;96101.69;;;20.82;35.56
48216;BME280;34005;48.844;10.098;2023-04-22T10:15:10;96092.94;;;20.91;34.91
48216;BME280;34005;48.844;10.098;2023-04-22T10:17:38;96097.75;;;21.05;35.35
48216;BME280;34005;48.844;10.098;2023-04-22T10:20:09;96099.91;;;21.18;33.97
48216;BME280;34005;48.844;10.098;2023-04-22T10:22:41;96097.84;;;21.30;34.05
48216;BME280;34005;48.844;10.098;2023-04-22T10:25:12;96096.81;;;21.47;34.86
48216;BME280;34005;48.844;10.098;2023-04-22T10:27:41;96098.72;;;21.62;34.76
48216;BME280;34005;48.844;10.098;2023-04-22T10:30:09;96097.41;;;21.74;34.95
48216;BME280;34005;48.844;10.098;2023-04-22T10:32:37;96096.34;;;21.80;34.41
48216;BME280;34005;48.844;10.098;2023-04-22T10:35:11;96097.13;;;21.81;34.12
48216;BME280;34005;48.844;10.098;2023-04-22T10:37:43;96088.91;;;21.88;34.41
48216;BME280;34005;48.844;10.098;2023-04-22T10:40:14;96076.94;;;22.00;31.67
48216;BME280;34005;48.844;10.098;2023-04-22T10:42:47;96079.03;;;22.14;32.05
48216;BME280;34005;48.844;10.098;2023-04-22T10:45:15;96081.72;;;22.29;32.21
48216;BME280;34005;48.844;10.098;2023-04-22T10:47:43;96070.00;;;22.35;30.73
48216;BME280;34005;48.844;10.098;2023-04-22T10:50:17;96077.69;;;22.42;34.66
48216;BME280;34005;48.844;10.098;2023-04-22T10:52:49;96067.84;;;22.42;29.87
48216;BME280;34005;48.844;10.098;2023-04-22T10:55:17;96063.91;;;22.35;28.95
48216;BME280;34005;48.844;10.098;2023-04-22T10:57:47;96054.06;;;22.35;29.69
48216;BME280;34005;48.844;10.098;2023-04-22T11:00:30;96062.00;;;22.40;30.12
48216;BME280;34005;48.844;10.098;2023-04-22T11:03:24;96065.19;;;22.53;34.29
48216;BME280;34005;48.844;10.098;2023-04-22T11:06:15;96062.47;;;22.68;31.10
48216;BME280;34005;48.844;10.098;2023-04-22T11:08:44;96062.66;;;22.82;30.66
48216;BME280;34005;48.844;10.098;2023-04-22T11:11:12;96061.56;;;22.88;29.93
48216;BME280;34005;48.844;10.098;2023-04-22T11:13:40;96053.56;;;22.93;30.64
48216;BME280;34005;48.844;10.098;2023-04-22T11:16:09;96054.34;;;23.04;32.22
48216;BME280;34005;48.844;10.098;2023-04-22T11:18:37;96060.16;;;23.11;29.84
48216;BME280;34005;48.844;10.098;2023-04-22T11:21:05;96059.91;;;23.08;29.84
48216;BME280;34005;48.844;10.098;2023-04-22T11:23:35;96046.09;;;23.06;28.96
48216;BME280;34005;48.844;10.098;2023-04-22T11:26:04;96053.00;;;23.07;30.43
48216;BME280;34005;48.844;10.098;2023-04-22T11:28:32;96049.22;;;23.13;29.10
48216;BME280;34005;48.844;10.098;2023-04-22T11:31:03;96050.84;;;23.09;28.50
48216;BME280;34005;48.844;10.098;2023-04-22T11:33:31;96049.03;;;23.04;28.38
48216;BME280;34005;48.844;10.098;2023-04-22T11:35:59;96040.53;;;22.97;27.73
48216;BME280;34005;48.844;10.098;2023-04-22T11:38:27;96043.75;;;22.94;29.26
48216;BME280;34005;48.844;10.098;2023-04-22T11:40:56;96045.31;;;23.00;27.79
48216;BME280;34005;48.844;10.098;2023-04-22T11:43:24;96044.75;;;23.08;28.30
48216;BME280;34005;48.844;10.098;2023-04-22T11:45:54;96034.59;;;23.15;27.64
48216;BME280;34005;48.844;10.098;2023-04-22T11:48:22;96032.19;;;23.19;26.90
48216;BME280;34005;48.844;10.098;2023-04-22T11:51:06;96044.13;;;23.21;27.91
48216;BME280;34005;48.844;10.098;2023-04-22T11:53:34;96044.41;;;23.20;28.03
48216;BME280;34005;48.844;10.098;2023-04-22T11:56:04;96037.22;;;23.20;27.62
48216;BME280;34005;48.844;10.098;2023-04-22T11:58:31;96040.63;;;23.26;27.93
48216;BME280;34005;48.844;10.098;2023-04-22T12:00:59;96039.59;;;23.27;27.86
48216;BME280;34005;48.844;10.098;2023-04-22T12:03:28;96040.63;;;23.31;32.37
48216;BME280;34005;48.844;10.098;2023-04-22T12:05:58;96036.91;;;23.27;28.78
48216;BME280;34005;48.844;10.098;2023-04-22T12:08:30;96039.59;;;23.27;29.08
48216;BME280;34005;48.844;10.098;2023-04-22T12:11:00;96039.53;;;23.32;28.88
48216;BME280;34005;48.844;10.098;2023-04-22T12:13:31;96040.56;;;23.36;28.37
48216;BME280;34005;48.844;10.098;2023-04-22T12:16:01;96037.34;;;23.44;30.76
48216;BME280;34005;48.844;10.098;2023-04-22T12:18:29;96033.50;;;23.56;28.77
48216;BME280;34005;48.844;10.098;2023-04-22T12:21:01;96033.44;;;23.66;26.94
48216;BME280;34005;48.844;10.098;2023-04-22T12:23:40;96025.97;;;23.68;27.26
48216;BME280;34005;48.844;10.098;2023-04-22T12:26:07;96030.72;;;23.71;31.52
48216;BME280;34005;48.844;10.098;2023-04-22T12:28:38;96027.78;;;23.73;27.97
48216;BME280;34005;48.844;10.098;2023-04-22T12:31:06;96035.50;;;23.79;31.21
48216;BME280;34005;48.844;10.098;2023-04-22T12:33:35;96025.06;;;23.83;28.40
48216;BME280;34005;48.844;10.098;2023-04-22T12:36:03;96023.19;;;23.83;27.09
48216;BME280;34005;48.844;10.098;2023-04-22T12:38:31;96028.28;;;23.80;29.36
48216;BME280;34005;48.844;10.098;2023-04-22T12:40:59;96021.38;;;23.74;27.90
48216;BME280;34005;48.844;10.098;2023-04-22T12:43:26;96028.59;;;23.73;26.41
48216;BME280;34005;48.844;10.098;2023-04-22T12:45:55;96022.47;;;23.73;26.01
48216;BME280;34005;48.844;10.098;2023-04-22T12:48:23;96021.94;;;23.76;25.54
48216;BME280;34005;48.844;10.098;2023-04-22T12:50:50;96018.72;;;23.74;25.77
48216;BME280;34005;48.844;10.098;2023-04-22T12:53:19;96022.47;;;23.73;25.70
48216;BME280;34005;48.844;10.098;2023-04-22T12:55:47;96018.53;;;23.65;26.58
48216;BME280;34005;48.844;10.098;2023-04-22T12:58:14;96021.50;;;23.58;26.12
48216;BME280;34005;48.844;10.098;2023-04-22T13:00:42;96015.16;;;23.54;28.19
48216;BME280;34005;48.844;10.098;2023-04-22T13:03:11;96020.53;;;23.49;30.25
48216;BME280;34005;48.844;10.098;2023-04-22T13:05:39;96017.94;;;23.39;26.82